Time;durP1;ratioP1;P1;durP2;ratioP2;P2;SDS_P1;SDS_P2;PMS_P1;PMS_P2;Temp;Humidity;BMP_temperature;BMP_pressure;BME280_temperature;BME280_humidity;BME280_pressure;Samples;Min_cycle;Max_cycle;Signal;HPM_P1;HPM_P2
2021/09/26 00:01:46;;;;;;;7.95;6.00;;;17.40;99.90;;;;;;5000311;28;20101;-80
2021/09/26 00:04:12;;;;;;;5.97;5.38;;;17.40;99.90;;;;;;5001157;28;20022;-79
2021/09/26 00:06:38;;;;;;;5.88;5.32;;;17.50;99.90;;;;;;5003604;28;20026;-80
2021/09/26 00:09:05;;;;;;;6.25;5.22;;;17.50;99.90;;;;;;5015423;28;20030;-79
2021/09/26 00:11:31;;;;;;;7.90;6.40;;;17.50;99.90;;;;;;5026443;28;20026;-79
2021/09/26 00:13:57;;;;;;;7.68;6.82;;;17.50;99.90;;;;;;5029868;28;20100;-80
2021/09/26 00:16:23;;;;;;;7.28;6.10;;;17.50;99.90;;;;;;5032126;28;20419;-79
2021/09/26 00:18:49;;;;;;;8.27;5.88;;;17.50;99.90;;;;;;5039073;28;20076;-80
2021/09/26 00:21:16;;;;;;;7.97;6.15;;;17.40;99.90;;;;;;5039807;28;20025;-78
2021/09/26 00:23:42;;;;;;;8.52;7.25;;;17.40;99.90;;;;;;5039087;28;20048;-79
2021/09/26 00:26:08;;;;;;;8.30;6.93;;;17.40;99.90;;;;;;5036918;28;20389;-80
2021/09/26 00:28:35;;;;;;;9.10;6.32;;;17.40;99.90;;;;;;5013212;28;20033;-79
2021/09/26 00:31:03;;;;;;;7.40;6.28;;;17.40;99.90;;;;;;4982560;28;20492;-80
2021/09/26 00:33:29;;;;;;;6.95;6.00;;;17.30;99.90;;;;;;4999720;28;20472;-80
2021/09/26 00:35:55;;;;;;;7.10;5.45;;;17.40;99.90;;;;;;4983158;28;20030;-80
2021/09/26 00:38:21;;;;;;;5.55;4.95;;;17.40;99.90;;;;;;5000115;28;20030;-80
2021/09/26 00:40:49;;;;;;;5.70;5.13;;;17.40;99.90;;;;;;4985138;28;20459;-80
2021/09/26 00:43:16;;;;;;;5.93;5.25;;;17.50;99.90;;;;;;5008694;28;20022;-80
2021/09/26 00:45:42;;;;;;;4.35;3.90;;;17.50;99.90;;;;;;5025346;28;20041;-79
2021/09/26 00:48:08;;;;;;;7.22;4.88;;;17.40;99.90;;;;;;5019726;28;20046;-77
2021/09/26 00:50:35;;;;;;;4.20;3.80;;;17.40;99.90;;;;;;5021965;28;20022;-79
2021/09/26 00:53:01;;;;;;;4.50;3.88;;;17.40;99.90;;;;;;5021893;28;20390;-80
2021/09/26 00:55:30;;;;;;;4.18;3.80;;;17.40;99.90;;;;;;5022168;28;20677;-79
2021/09/26 00:57:57;;;;;;;3.65;3.35;;;17.30;99.90;;;;;;5022995;28;20459;-79
2021/09/26 01:00:22;;;;;;;4.05;3.65;;;17.30;99.90;;;;;;5020761;28;20026;-80
2021/09/26 01:02:48;;;;;;;3.80;3.50;;;17.30;99.90;;;;;;5005462;28;20081;-80
2021/09/26 01:05:15;;;;;;;3.60;3.30;;;17.30;99.90;;;;;;5000444;28;20058;-80
2021/09/26 01:08:06;;;;;;;3.60;3.25;;;17.30;99.90;;;;;;5000218;28;20033;-80
2021/09/26 01:10:40;;;;;;;4.45;3.58;;;17.30;99.90;;;;;;4999614;28;20065;-80
2021/09/26 01:13:23;;;;;;;3.97;3.55;;;17.30;99.90;;;;;;5006476;28;20053;-80
2021/09/26 01:16:12;;;;;;;4.25;3.85;;;17.40;99.90;;;;;;5026783;28;20017;-79
2021/09/26 01:18:51;;;;;;;4.75;4.25;;;17.30;99.90;;;;;;5011524;28;20031;-79
2021/09/26 01:21:35;;;;;;;6.32;4.00;;;17.30;99.90;;;;;;5002262;28;20094;-79
2021/09/26 01:24:19;;;;;;;5.03;4.25;;;17.30;99.90;;;;;;5002735;28;20037;-78
2021/09/26 01:26:46;;;;;;;5.65;4.30;;;17.30;99.90;;;;;;5005097;28;20026;-78
2021/09/26 01:29:43;;;;;;;4.30;3.90;;;17.20;99.90;;;;;;5016560;28;20037;-80
2021/09/26 01:32:10;;;;;;;5.38;3.53;;;17.20;99.90;;;;;;5000000;28;20054;-79
2021/09/26 01:34:43;;;;;;;4.00;3.67;;;17.10;99.90;;;;;;4999049;28;20038;-77
2021/09/26 01:37:37;;;;;;;3.75;3.38;;;17.10;99.90;;;;;;4996746;28;20030;-77
2021/09/26 01:40:24;;;;;;;4.32;3.60;;;17.20;99.90;;;;;;5022195;28;20026;-76
2021/09/26 01:42:53;;;;;;;4.30;3.70;;;17.10;99.90;;;;;;5011411;28;20093;-77
2021/09/26 01:45:47;;;;;;;3.97;3.58;;;17.10;99.90;;;;;;5031235;28;20109;-77
2021/09/26 01:48:19;;;;;;;3.80;3.42;;;17.10;99.90;;;;;;5020986;28;20022;-76
2021/09/26 01:50:47;;;;;;;3.20;2.90;;;17.10;99.90;;;;;;5045271;28;20060;-78
2021/09/26 01:53:14;;;;;;;3.45;3.15;;;17.10;99.90;;;;;;5047177;28;20080;-81
2021/09/26 01:55:42;;;;;;;4.22;3.70;;;17.00;99.90;;;;;;5001047;28;20061;-80
2021/09/26 01:58:09;;;;;;;6.32;3.88;;;17.00;99.90;;;;;;4998202;28;20038;-79
2021/09/26 02:00:35;;;;;;;3.38;3.08;;;17.00;99.90;;;;;;4996780;28;20121;-81
2021/09/26 02:03:00;;;;;;;3.85;3.45;;;17.00;99.90;;;;;;5010072;28;20014;-78
2021/09/26 02:05:27;;;;;;;3.88;3.05;;;16.90;99.90;;;;;;5000342;28;20072;-78
2021/09/26 02:07:54;;;;;;;3.17;2.92;;;16.90;99.90;;;;;;5010860;28;20064;-79
2021/09/26 02:10:24;;;;;;;3.40;3.10;;;17.00;99.90;;;;;;5006015;28;20037;-81
2021/09/26 02:12:52;;;;;;;2.53;2.42;;;17.00;99.90;;;;;;5006084;28;20111;-80
2021/09/26 02:15:22;;;;;;;3.35;3.05;;;17.00;99.90;;;;;;5033868;28;20048;-79
2021/09/26 02:17:48;;;;;;;3.13;2.92;;;17.00;99.90;;;;;;5035292;28;20028;-81
2021/09/26 02:20:17;;;;;;;5.20;3.40;;;17.00;99.90;;;;;;5037648;28;20025;-81
2021/09/26 02:22:44;;;;;;;3.25;2.97;;;17.00;99.90;;;;;;5037306;28;20022;-81
2021/09/26 02:25:12;;;;;;;3.22;2.92;;;17.00;99.90;;;;;;5039702;28;20044;-81
2021/09/26 02:27:38;;;;;;;3.63;3.33;;;17.00;99.90;;;;;;5038071;28;20045;-81
2021/09/26 02:30:06;;;;;;;5.32;4.22;;;16.90;99.90;;;;;;5009227;28;20025;-80
2021/09/26 02:32:32;;;;;;;4.03;3.50;;;16.90;99.90;;;;;;4998088;28;20030;-81
2021/09/26 02:34:58;;;;;;;3.90;3.50;;;16.90;99.90;;;;;;4997338;28;20026;-81
2021/09/26 02:37:24;;;;;;;3.50;3.20;;;16.90;99.90;;;;;;4997443;28;20033;-81
2021/09/26 02:39:50;;;;;;;3.70;3.35;;;16.80;99.90;;;;;;4998284;28;20038;-79
2021/09/26 02:42:27;;;;;;;8.00;4.25;;;16.70;99.90;;;;;;4982678;28;20029;-79
2021/09/26 02:45:07;;;;;;;6.03;3.92;;;16.70;99.90;;;;;;5037527;28;20033;-81
2021/09/26 02:47:55;;;;;;;4.03;3.33;;;16.70;99.90;;;;;;5003533;28;20488;-81
2021/09/26 02:50:21;;;;;;;4.82;3.28;;;16.60;99.90;;;;;;5019132;28;20038;-80
2021/09/26 02:52:48;;;;;;;3.50;3.20;;;16.60;99.90;;;;;;5018746;28;20080;-80
2021/09/26 02:55:15;;;;;;;3.45;3.15;;;16.50;99.90;;;;;;4999772;28;20029;-81
2021/09/26 02:57:42;;;;;;;3.80;3.40;;;16.60;99.90;;;;;;5017892;28;20033;-81
2021/09/26 03:00:09;;;;;;;3.65;3.00;;;16.50;99.90;;;;;;5019524;28;20104;-81
2021/09/26 03:02:35;;;;;;;3.13;2.90;;;16.40;99.90;;;;;;4999352;28;20067;-81
2021/09/26 03:05:02;;;;;;;3.47;3.17;;;16.40;99.90;;;;;;5010402;28;20034;-78
2021/09/26 03:07:28;;;;;;;3.00;2.67;;;16.40;99.90;;;;;;4999949;28;20073;-81
2021/09/26 03:09:53;;;;;;;3.17;2.90;;;16.30;99.90;;;;;;5026405;23;20042;-83
2021/09/26 03:12:21;;;;;;;3.17;2.90;;;16.40;99.90;;;;;;5009628;28;20018;-84
2021/09/26 03:14:48;;;;;;;2.80;2.60;;;16.30;99.90;;;;;;5023117;28;20052;-84
2021/09/26 03:17:14;;;;;;;2.90;2.70;;;16.30;99.90;;;;;;5022438;28;20029;-85
2021/09/26 03:19:40;;;;;;;3.03;2.72;;;16.30;99.90;;;;;;5038338;28;20112;-85
2021/09/26 03:22:06;;;;;;;3.13;2.70;;;16.30;99.90;;;;;;5020462;28;20058;-85
2021/09/26 03:24:33;;;;;;;3.33;2.95;;;16.30;99.90;;;;;;5002868;28;20471;-84
2021/09/26 03:27:06;;;;;;;4.03;3.33;;;16.30;99.90;;;;;;5020191;28;20515;-85
2021/09/26 03:29:33;;;;;;;3.40;3.05;;;16.20;99.90;;;;;;5020134;28;20014;-84
2021/09/26 03:31:59;;;;;;;3.20;2.90;;;16.30;99.90;;;;;;5024791;28;20018;-84
2021/09/26 03:34:25;;;;;;;3.20;2.85;;;16.20;99.90;;;;;;5022966;28;20022;-84
2021/09/26 03:36:51;;;;;;;2.70;2.50;;;16.20;99.90;;;;;;5020128;28;20033;-84
2021/09/26 03:39:17;;;;;;;4.32;2.83;;;16.20;99.90;;;;;;5019345;28;20156;-84
2021/09/26 03:41:43;;;;;;;2.85;2.65;;;16.20;99.90;;;;;;5014220;28;20120;-84
2021/09/26 03:44:08;;;;;;;3.20;2.85;;;16.20;99.90;;;;;;5021547;28;20542;-83
2021/09/26 03:46:34;;;;;;;2.83;2.63;;;16.10;99.90;;;;;;5019878;28;20040;-83
2021/09/26 03:49:00;;;;;;;3.55;3.00;;;16.10;99.90;;;;;;5019636;28;20070;-85
2021/09/26 03:51:27;;;;;;;3.42;2.88;;;16.00;99.90;;;;;;5020971;28;20061;-84
2021/09/26 03:53:52;;;;;;;3.70;3.17;;;16.00;99.90;;;;;;5021302;28;20082;-84
2021/09/26 03:56:18;;;;;;;3.22;2.85;;;16.00;99.90;;;;;;5004563;28;20112;-84
2021/09/26 03:58:45;;;;;;;3.50;3.20;;;16.00;99.90;;;;;;5019285;28;20034;-85
2021/09/26 04:01:11;;;;;;;2.67;2.47;;;16.00;99.90;;;;;;5001746;28;20037;-84
2021/09/26 04:03:37;;;;;;;3.10;2.80;;;15.90;99.90;;;;;;5001388;28;20022;-84
2021/09/26 04:06:06;;;;;;;3.47;2.83;;;15.90;99.90;;;;;;5019708;28;20033;-84
2021/09/26 04:08:32;;;;;;;3.28;2.97;;;15.90;99.90;;;;;;5020739;28;20387;-85
2021/09/26 04:10:58;;;;;;;3.13;2.83;;;15.90;99.90;;;;;;5012570;28;20025;-84
2021/09/26 04:13:24;;;;;;;3.03;2.70;;;15.90;99.90;;;;;;5030538;28;20029;-84
2021/09/26 04:15:49;;;;;;;4.65;3.63;;;15.80;99.90;;;;;;5038717;28;20394;-84
2021/09/26 04:18:15;;;;;;;3.42;3.03;;;15.80;99.90;;;;;;5038848;28;20053;-85
2021/09/26 04:20:41;;;;;;;4.07;3.10;;;15.80;99.90;;;;;;5029954;28;20030;-84
2021/09/26 04:23:06;;;;;;;3.20;2.95;;;15.80;99.90;;;;;;5018142;28;20451;-83
2021/09/26 04:25:32;;;;;;;3.50;3.20;;;15.70;99.90;;;;;;5018268;28;20458;-84
2021/09/26 04:27:58;;;;;;;3.95;3.22;;;15.70;99.90;;;;;;5018110;28;20030;-84
2021/09/26 04:30:24;;;;;;;4.03;3.30;;;15.70;99.90;;;;;;5002826;28;20029;-84
2021/09/26 04:32:50;;;;;;;3.40;3.10;;;15.60;99.90;;;;;;4981581;28;20105;-85
2021/09/26 04:35:16;;;;;;;2.60;2.40;;;15.70;99.90;;;;;;4981828;28;20463;-84
2021/09/26 04:37:42;;;;;;;3.38;3.08;;;15.60;99.90;;;;;;5001571;28;20027;-85
2021/09/26 04:40:08;;;;;;;3.38;3.08;;;15.60;99.90;;;;;;5007925;28;20026;-85
2021/09/26 04:42:35;;;;;;;2.95;2.75;;;15.60;99.90;;;;;;5029615;28;20030;-85
2021/09/26 04:45:02;;;;;;;5.95;3.13;;;15.60;99.90;;;;;;5037857;28;20071;-85
2021/09/26 04:47:28;;;;;;;3.90;2.95;;;15.50;99.90;;;;;;5005520;28;20049;-83
2021/09/26 04:49:54;;;;;;;4.00;3.13;;;15.50;99.90;;;;;;5017274;28;20021;-84
2021/09/26 04:52:19;;;;;;;3.30;3.00;;;15.50;99.90;;;;;;5017784;28;20394;-84
2021/09/26 04:54:45;;;;;;;3.20;2.83;;;15.50;99.90;;;;;;5017801;28;20390;-85
2021/09/26 04:57:11;;;;;;;3.63;3.20;;;15.50;99.90;;;;;;5023604;28;20080;-83
2021/09/26 04:59:37;;;;;;;3.30;3.00;;;15.40;99.90;;;;;;5017327;28;20505;-83
2021/09/26 05:02:02;;;;;;;4.00;2.95;;;15.40;99.90;;;;;;5017905;28;20057;-84
2021/09/26 05:04:30;;;;;;;3.45;3.15;;;15.40;99.90;;;;;;4989488;28;20058;-77
2021/09/26 05:06:57;;;;;;;3.22;2.88;;;15.40;99.90;;;;;;5014880;28;20465;-79
2021/09/26 05:09:23;;;;;;;3.20;2.80;;;15.40;99.90;;;;;;5028112;28;20065;-79
2021/09/26 05:11:49;;;;;;;3.50;3.20;;;15.40;99.90;;;;;;5030585;28;20022;-79
2021/09/26 05:14:15;;;;;;;2.95;2.67;;;15.40;99.90;;;;;;5043215;28;20151;-78
2021/09/26 05:16:40;;;;;;;3.50;2.83;;;15.40;99.90;;;;;;5042077;28;20057;-77
2021/09/26 05:19:06;;;;;;;3.97;3.47;;;15.40;99.90;;;;;;5022944;28;20029;-78
2021/09/26 05:21:33;;;;;;;4.50;3.13;;;15.50;99.90;;;;;;5024825;28;20041;-79
2021/09/26 05:23:58;;;;;;;4.78;3.17;;;15.50;99.90;;;;;;5002519;28;20061;-79
2021/09/26 05:26:24;;;;;;;3.45;3.15;;;15.50;99.90;;;;;;5002179;28;20030;-79
2021/09/26 05:28:50;;;;;;;3.65;3.35;;;15.60;99.90;;;;;;5002030;28;20024;-79
2021/09/26 05:31:15;;;;;;;3.33;3.03;;;15.70;99.90;;;;;;5001713;28;20426;-78
2021/09/26 05:33:41;;;;;;;4.05;3.10;;;15.80;99.90;;;;;;5000563;28;20104;-78
2021/09/26 05:36:07;;;;;;;3.28;2.80;;;15.80;99.90;;;;;;5001022;28;20502;-78
2021/09/26 05:38:33;;;;;;;2.53;2.33;;;15.90;99.90;;;;;;5021353;28;20064;-81
2021/09/26 05:40:59;;;;;;;4.03;2.80;;;16.10;99.90;;;;;;5030600;28;20049;-81
2021/09/26 05:43:24;;;;;;;4.30;3.03;;;16.20;99.90;;;;;;5024787;28;20069;-82
2021/09/26 05:45:50;;;;;;;3.17;2.88;;;16.40;99.90;;;;;;5043877;28;20029;-81
2021/09/26 05:48:16;;;;;;;3.63;2.78;;;16.60;99.90;;;;;;5042518;28;20075;-82
2021/09/26 05:50:42;;;;;;;3.00;2.78;;;16.70;99.90;;;;;;5031683;28;20045;-82
2021/09/26 05:53:08;;;;;;;2.88;2.67;;;16.80;99.90;;;;;;5024783;28;20479;-82
2021/09/26 05:55:34;;;;;;;2.97;2.78;;;16.90;99.90;;;;;;5007698;28;20033;-82
2021/09/26 05:58:00;;;;;;;3.35;3.05;;;17.00;99.90;;;;;;5028391;28;20046;-82
2021/09/26 06:00:26;;;;;;;3.15;2.85;;;17.10;99.90;;;;;;5008736;28;20097;-81
2021/09/26 06:02:55;;;;;;;3.60;3.00;;;17.10;99.90;;;;;;5005903;28;20087;-81
2021/09/26 06:05:23;;;;;;;3.20;2.90;;;17.20;99.90;;;;;;5018520;28;20085;-82
2021/09/26 06:07:50;;;;;;;2.67;2.40;;;17.20;99.90;;;;;;4987546;28;20031;-81
2021/09/26 06:10:16;;;;;;;2.55;2.35;;;17.30;99.90;;;;;;4987500;28;1169459;-82
2021/09/26 06:12:42;;;;;;;2.90;2.63;;;17.40;99.90;;;;;;5029241;28;20390;-82
2021/09/26 06:15:08;;;;;;;3.63;3.13;;;17.40;99.90;;;;;;5022120;28;20037;-82
2021/09/26 06:17:34;;;;;;;3.00;2.50;;;17.50;99.90;;;;;;5022398;28;20036;-82
2021/09/26 06:20:01;;;;;;;5.75;2.95;;;17.50;99.90;;;;;;5022066;28;20061;-83
2021/09/26 06:22:27;;;;;;;2.92;2.72;;;17.60;99.90;;;;;;5021337;28;20105;-83
2021/09/26 06:24:56;;;;;;;2.88;2.67;;;17.70;99.90;;;;;;5023453;28;20029;-82
2021/09/26 06:27:23;;;;;;;5.13;3.05;;;17.80;99.90;;;;;;5004340;28;20033;-81
2021/09/26 06:29:49;;;;;;;2.97;2.78;;;17.90;99.90;;;;;;5037619;28;20072;-81
2021/09/26 06:32:15;;;;;;;2.47;2.28;;;17.90;99.90;;;;;;5012982;28;20092;-81
2021/09/26 06:34:41;;;;;;;2.67;2.30;;;18.00;99.90;;;;;;5034276;28;20359;-79
2021/09/26 06:37:07;;;;;;;3.05;2.75;;;18.00;99.50;;;;;;5040505;28;20030;-81
2021/09/26 06:39:34;;;;;;;4.25;2.72;;;18.10;99.20;;;;;;5003395;28;20066;-81
2021/09/26 06:42:00;;;;;;;4.03;2.75;;;18.10;98.80;;;;;;5028753;28;20025;-82
2021/09/26 06:44:26;;;;;;;3.47;2.80;;;18.10;98.60;;;;;;5041595;28;20027;-82
2021/09/26 06:46:53;;;;;;;2.90;2.50;;;18.20;98.50;;;;;;5040872;28;20104;-82
2021/09/26 06:49:19;;;;;;;2.85;2.58;;;18.20;98.40;;;;;;5040529;28;20038;-81
2021/09/26 06:51:45;;;;;;;3.72;2.35;;;18.20;98.20;;;;;;5042615;28;20017;-83
2021/09/26 06:54:11;;;;;;;2.50;2.30;;;18.10;98.20;;;;;;5028574;28;20298;-83
2021/09/26 06:56:37;;;;;;;2.40;2.20;;;18.10;98.20;;;;;;5042444;28;20029;-84
2021/09/26 06:59:02;;;;;;;3.45;2.47;;;18.10;98.00;;;;;;5042810;28;20159;-83
2021/09/26 07:01:32;;;;;;;2.40;2.20;;;18.10;97.80;;;;;;5044143;28;20034;-83
2021/09/26 07:03:58;;;;;;;2.28;2.08;;;18.10;97.60;;;;;;5024265;28;20508;-83
2021/09/26 07:06:24;;;;;;;2.50;2.30;;;18.20;97.60;;;;;;5042709;28;20083;-81
2021/09/26 07:08:49;;;;;;;2.00;1.88;;;18.20;97.50;;;;;;5042467;28;20029;-81
2021/09/26 07:11:15;;;;;;;2.45;2.25;;;18.30;97.30;;;;;;5033062;28;20029;-80
2021/09/26 07:13:41;;;;;;;2.08;1.88;;;18.40;97.00;;;;;;5024319;28;20033;-84
2021/09/26 07:16:06;;;;;;;2.80;2.47;;;18.40;96.80;;;;;;5001763;28;20458;-83
2021/09/26 07:18:32;;;;;;;4.15;2.40;;;18.50;96.40;;;;;;4997122;28;20275;-83
2021/09/26 07:21:01;;;;;;;2.65;2.45;;;18.50;96.10;;;;;;5014607;28;20451;-85
2021/09/26 07:23:27;;;;;;;2.50;2.30;;;18.70;95.80;;;;;;4985685;28;20030;-84
2021/09/26 07:25:52;;;;;;;2.35;2.15;;;18.90;95.30;;;;;;5028660;28;20048;-82
2021/09/26 07:28:18;;;;;;;7.57;3.20;;;19.10;94.80;;;;;;5040602;28;20067;-82
2021/09/26 07:30:44;;;;;;;3.90;2.38;;;19.30;94.30;;;;;;5043669;28;20018;-80
2021/09/26 07:33:09;;;;;;;6.00;2.70;;;19.50;93.50;;;;;;5027292;28;20026;-83
2021/09/26 07:35:35;;;;;;;2.90;2.20;;;19.70;92.90;;;;;;5039298;28;20097;-83
2021/09/26 07:38:01;;;;;;;2.90;2.30;;;19.80;92.40;;;;;;5028784;28;20075;-83
2021/09/26 07:40:27;;;;;;;3.58;2.50;;;20.00;92.30;;;;;;5016789;28;20029;-80
2021/09/26 07:42:53;;;;;;;2.40;2.20;;;20.10;91.60;;;;;;5017382;28;20030;-83
2021/09/26 07:45:18;;;;;;;2.92;2.30;;;20.20;91.10;;;;;;5014681;28;20022;-82
2021/09/26 07:47:44;;;;;;;2.53;2.33;;;20.30;90.80;;;;;;5019354;28;20056;-83
2021/09/26 07:50:11;;;;;;;2.30;1.88;;;20.50;90.40;;;;;;5037468;28;20042;-83
2021/09/26 07:52:38;;;;;;;2.72;2.05;;;20.60;89.60;;;;;;5021157;28;20497;-83
2021/09/26 07:55:05;;;;;;;2.08;1.98;;;20.70;88.50;;;;;;5038100;28;20036;-83
2021/09/26 07:57:33;;;;;;;2.22;2.03;;;20.80;88.10;;;;;;5041660;28;20072;-82
2021/09/26 07:59:59;;;;;;;2.83;2.53;;;21.00;87.10;;;;;;5041753;28;20021;-82
2021/09/26 08:02:25;;;;;;;2.25;2.05;;;21.30;86.10;;;;;;5042980;28;20148;-81
2021/09/26 08:04:51;;;;;;;2.25;2.05;;;21.40;84.40;;;;;;5024993;28;20482;-82
2021/09/26 08:07:17;;;;;;;2.03;1.65;;;21.60;83.50;;;;;;5025555;28;20041;-83
2021/09/26 08:09:42;;;;;;;4.82;2.35;;;21.80;82.10;;;;;;5021178;28;20030;-83
2021/09/26 08:12:09;;;;;;;4.03;2.33;;;21.80;80.70;;;;;;5032650;28;20017;-82
2021/09/26 08:14:34;;;;;;;4.70;2.35;;;21.80;80.10;;;;;;5023996;28;20061;-82
2021/09/26 08:17:01;;;;;;;3.05;2.20;;;21.80;79.70;;;;;;5024918;28;20034;-81
2021/09/26 08:19:27;;;;;;;2.17;1.98;;;21.90;79.60;;;;;;5027711;28;20021;-81
2021/09/26 08:21:53;;;;;;;4.18;1.80;;;22.10;78.80;;;;;;5026833;28;20026;-84
2021/09/26 08:24:20;;;;;;;5.10;2.38;;;22.20;77.30;;;;;;5023893;28;20117;-82
2021/09/26 08:26:46;;;;;;;1.90;1.80;;;22.30;76.30;;;;;;5024692;28;20034;-81
2021/09/26 08:29:11;;;;;;;4.03;2.47;;;22.40;75.50;;;;;;5028623;28;20018;-80
2021/09/26 08:31:55;;;;;;;7.53;2.78;;;22.50;74.60;;;;;;5010102;28;20382;-80
2021/09/26 08:34:22;;;;;;;2.25;2.00;;;22.50;73.90;;;;;;5013568;28;20026;-81
2021/09/26 08:36:48;;;;;;;2.20;2.00;;;22.70;73.70;;;;;;5027985;28;20033;-80
2021/09/26 08:39:13;;;;;;;3.42;2.40;;;23.00;73.10;;;;;;5025658;28;20030;-79
2021/09/26 08:41:39;;;;;;;4.05;2.33;;;23.20;71.20;;;;;;5042199;28;20025;-81
2021/09/26 08:44:06;;;;;;;4.55;2.28;;;23.30;71.10;;;;;;5029269;28;20078;-81
2021/09/26 08:46:33;;;;;;;4.60;2.03;;;23.40;70.70;;;;;;5019653;28;20054;-81
2021/09/26 08:48:59;;;;;;;4.40;2.10;;;23.60;70.70;;;;;;5020070;28;20041;-80
2021/09/26 08:51:25;;;;;;;2.67;1.70;;;23.90;68.80;;;;;;5008613;28;20052;-80
2021/09/26 08:53:51;;;;;;;4.88;2.08;;;24.10;68.30;;;;;;5028034;28;20018;-80
2021/09/26 08:56:20;;;;;;;3.88;2.35;;;24.30;67.10;;;;;;5027728;28;20149;-81
2021/09/26 08:58:48;;;;;;;1.73;1.63;;;24.30;66.90;;;;;;5011062;28;20025;-81
2021/09/26 09:01:14;;;;;;;2.08;1.88;;;24.60;66.80;;;;;;5036425;28;20064;-77
2021/09/26 09:03:45;;;;;;;6.28;2.60;;;25.00;65.40;;;;;;5018522;28;20033;-80
2021/09/26 09:06:11;;;;;;;2.15;1.95;;;25.50;64.10;;;;;;5034804;28;20030;-78
2021/09/26 09:08:40;;;;;;;2.97;2.22;;;26.00;63.10;;;;;;5020893;28;20030;-78
2021/09/26 09:11:17;;;;;;;2.85;2.10;;;26.50;61.40;;;;;;5038547;23;20097;-81
2021/09/26 09:13:43;;;;;;;5.38;2.33;;;26.60;60.20;;;;;;4992200;28;20034;-82
2021/09/26 09:16:19;;;;;;;3.58;2.17;;;26.50;59.50;;;;;;5002937;28;20049;-83
2021/09/26 09:18:52;;;;;;;6.90;2.88;;;26.40;59.30;;;;;;5012104;28;20018;-82
2021/09/26 09:21:44;;;;;;;7.47;1.67;;;26.20;58.00;;;;;;4984421;28;20089;-82
2021/09/26 09:24:25;;;;;;;3.53;2.03;;;25.50;59.00;;;;;;4983584;28;20046;-83
2021/09/26 09:26:53;;;;;;;5.07;2.75;;;25.20;60.30;;;;;;4983598;28;20042;-82
2021/09/26 09:29:24;;;;;;;4.07;2.28;;;25.00;60.40;;;;;;4950164;29;20027;-83
2021/09/26 09:31:56;;;;;;;6.63;2.20;;;25.10;60.20;;;;;;4965775;28;20034;-82
2021/09/26 09:34:37;;;;;;;4.32;2.35;;;25.10;60.20;;;;;;4963456;29;20020;-83
2021/09/26 09:37:22;;;;;;;3.15;1.80;;;25.30;59.90;;;;;;4964007;29;20031;-83
2021/09/26 09:40:09;;;;;;;3.67;2.72;;;25.40;59.90;;;;;;4961125;28;20035;-83
2021/09/26 09:42:46;;;;;;;4.93;2.65;;;25.40;57.80;;;;;;4993023;28;20026;-83
2021/09/26 09:45:36;;;;;;;4.43;2.20;;;25.20;58.20;;;;;;5017860;28;20010;-82
2021/09/26 09:48:12;;;;;;;4.75;2.03;;;25.20;57.20;;;;;;4994449;28;20127;-82
2021/09/26 09:50:55;;;;;;;2.17;1.90;;;25.10;57.90;;;;;;4964062;29;20023;-83
2021/09/26 09:54:16;;;;;;;8.38;2.65;;;25.20;58.10;;;;;;4973714;28;20039;-83
2021/09/26 09:56:46;;;;;;;3.00;1.70;;;25.40;57.90;;;;;;4956235;28;20031;-83
2021/09/26 09:59:15;;;;;;;1.83;1.70;;;25.70;57.80;;;;;;4974043;28;20027;-84
2021/09/26 10:01:44;;;;;;;3.15;1.90;;;26.00;57.20;;;;;;4970106;29;20027;-81
2021/09/26 10:04:10;;;;;;;2.30;1.70;;;26.30;56.90;;;;;;4970328;29;20075;-85
2021/09/26 10:06:44;;;;;;;3.75;2.00;;;26.60;56.10;;;;;;4952856;29;20063;-81
2021/09/26 10:09:13;;;;;;;2.10;1.70;;;26.70;55.70;;;;;;4953902;28;20038;-82
2021/09/26 10:11:45;;;;;;;3.30;2.00;;;26.70;55.40;;;;;;4987278;28;20031;-82
2021/09/26 10:14:11;;;;;;;;;;;26.60;55.70;;;;;;4988952;28;20029;-81
2021/09/26 10:16:37;;;;;;;3.25;2.08;;;26.50;55.50;;;;;;5007253;28;19914;-82
2021/09/26 10:19:04;;;;;;;3.13;2.15;;;26.20;55.70;;;;;;5006450;28;20437;-82
2021/09/26 10:21:35;;;;;;;1.77;1.63;;;26.00;56.20;;;;;;4989147;28;20038;-83
2021/09/26 10:24:01;;;;;;;;;;;26.10;56.80;;;;;;4973513;28;20113;-80
2021/09/26 10:26:28;;;;;;;2.03;1.83;;;26.40;56.50;;;;;;4966250;29;19918;-80
2021/09/26 10:28:56;;;;;;;2.20;1.80;;;26.40;56.20;;;;;;4967992;29;20023;-82
2021/09/26 10:31:25;;;;;;;2.70;2.03;;;26.40;56.20;;;;;;4980215;28;20023;-80
2021/09/26 10:33:54;;;;;;;1.77;1.67;;;26.30;56.60;;;;;;4987229;28;20027;-81
2021/09/26 10:36:24;;;;;;;1.90;1.80;;;26.30;56.70;;;;;;4973457;28;20129;-82
2021/09/26 10:38:58;;;;;;;2.25;2.05;;;26.30;57.10;;;;;;4971752;28;20042;-81
2021/09/26 10:42:06;;;;;;;2.50;2.20;;;26.30;57.30;;;;;;4986571;28;20029;-81
2021/09/26 10:44:32;;;;;;;2.90;2.00;;;26.20;57.20;;;;;;4954444;29;20046;-80
2021/09/26 10:47:16;;;;;;;4.45;2.47;;;25.90;57.50;;;;;;4966420;29;20083;-80
2021/09/26 10:50:04;;;;;;;2.40;2.20;;;25.80;57.70;;;;;;4967661;29;20023;-80
2021/09/26 10:52:37;;;;;;;3.50;2.47;;;25.80;58.40;;;;;;4949628;29;20114;-81
2021/09/26 10:55:15;;;;;;;3.70;2.20;;;25.90;58.00;;;;;;4968348;29;20050;-83
2021/09/26 10:57:52;;;;;;;2.33;2.10;;;25.90;58.10;;;;;;4953538;28;20103;-82
2021/09/26 11:00:50;;;;;;;5.13;2.25;;;25.90;58.00;;;;;;4979472;28;20038;-82
2021/09/26 11:03:48;;;;;;;3.15;2.10;;;25.70;58.50;;;;;;4997398;28;20014;-79
2021/09/26 11:06:29;;;;;;;2.83;2.30;;;25.70;59.20;;;;;;4972559;29;20027;-79
2021/09/26 11:09:08;;;;;;;7.18;2.83;;;25.90;58.50;;;;;;4965051;29;20094;-81
2021/09/26 11:11:47;;;;;;;2.33;1.70;;;26.20;57.90;;;;;;4979103;28;20043;-80
2021/09/26 11:14:14;;;;;;;2.20;2.00;;;26.30;58.00;;;;;;4984803;28;20034;-80
2021/09/26 11:16:58;;;;;;;2.15;2.05;;;26.50;57.30;;;;;;4974912;28;20031;-80
2021/09/26 11:19:28;;;;;;;6.15;2.30;;;26.50;57.00;;;;;;4967316;28;20039;-80
2021/09/26 11:22:16;;;;;;;4.30;2.70;;;26.30;57.30;;;;;;4963848;28;20031;-82
2021/09/26 11:24:44;;;;;;;2.42;2.20;;;25.90;58.20;;;;;;4977442;28;20459;-81
2021/09/26 11:27:15;;;;;;;4.53;2.42;;;25.60;59.30;;;;;;4985340;28;20034;-81
2021/09/26 11:29:44;;;;;;;5.35;2.33;;;25.60;59.80;;;;;;5002846;28;20161;-81
2021/09/26 11:32:19;;;;;;;4.38;2.90;;;25.60;59.90;;;;;;4990082;28;20028;-80
2021/09/26 11:34:48;;;;;;;5.90;2.88;;;25.70;59.60;;;;;;4991612;28;20033;-81
2021/09/26 11:37:41;;;;;;;3.75;2.40;;;25.90;59.10;;;;;;4996463;28;20031;-80
2021/09/26 11:40:19;;;;;;;5.00;2.03;;;26.10;58.40;;;;;;4970702;28;20035;-80
2021/09/26 11:49:50;;;;;;;4.47;2.45;;;26.60;55.80;;;;;;4966683;29;20039;-79
2021/09/26 11:52:16;;;;;;;6.60;2.40;;;26.70;54.70;;;;;;4986182;28;20031;-80
2021/09/26 11:54:43;;;;;;;5.28;2.05;;;26.60;54.30;;;;;;5003482;28;20055;-83
2021/09/26 11:57:12;;;;;;;6.68;2.80;;;26.50;54.00;;;;;;4988430;28;20038;-80
2021/09/26 11:59:42;;;;;;;3.30;1.95;;;26.40;52.50;;;;;;4963094;28;20031;-82
2021/09/26 12:02:20;;;;;;;2.63;2.10;;;26.30;52.30;;;;;;5001791;28;20075;-82
2021/09/26 12:04:47;;;;;;;3.28;1.95;;;26.20;53.20;;;;;;4992673;28;20030;-81
2021/09/26 12:07:13;;;;;;;3.90;2.22;;;26.40;53.80;;;;;;4990635;28;20118;-81
2021/09/26 12:09:42;;;;;;;4.22;2.03;;;26.60;53.50;;;;;;4988902;28;20034;-80
2021/09/26 12:12:11;;;;;;;8.52;2.72;;;26.80;52.30;;;;;;4994656;28;20041;-79
2021/09/26 12:14:39;;;;;;;7.32;2.20;;;26.70;52.40;;;;;;4995759;28;20095;-79
2021/09/26 12:17:07;;;;;;;3.30;2.00;;;26.40;52.80;;;;;;4997208;28;20030;-80
2021/09/26 12:19:34;;;;;;;7.70;2.33;;;26.10;53.90;;;;;;4995310;28;20067;-80
2021/09/26 12:22:10;;;;;;;4.85;2.65;;;25.90;54.20;;;;;;5000084;28;20034;-81
2021/09/26 12:24:42;;;;;;;5.47;2.53;;;25.60;54.80;;;;;;4989134;28;20018;-80
2021/09/26 12:27:26;;;;;;;;;;;25.50;55.70;;;;;;4983006;28;20033;-79
2021/09/26 12:29:56;;;;;;;7.82;2.33;;;25.50;56.90;;;;;;4977344;28;19949;-81
2021/09/26 12:32:25;;;;;;;2.70;1.95;;;25.40;56.60;;;;;;4988480;28;20054;-80
2021/09/26 12:34:51;;;;;;;10.40;3.10;;;25.50;57.00;;;;;;4990533;28;20082;-80
2021/09/26 12:37:24;;;;;;;10.18;3.53;;;25.50;58.60;;;;;;4985582;28;20084;-80
2021/09/26 12:39:56;;;;;;;6.90;2.47;;;25.50;59.40;;;;;;4988885;28;20026;-79
2021/09/26 12:42:33;;;;;;;9.80;3.05;;;25.60;59.90;;;;;;4979328;28;20023;-79
2021/09/26 12:45:23;;;;;;;7.43;3.20;;;25.40;60.50;;;;;;4989212;28;20018;-81
2021/09/26 12:47:51;;;;;;;8.93;3.58;;;25.30;61.10;;;;;;4959193;28;20031;-81
2021/09/26 12:50:19;;;;;;;9.40;3.55;;;25.40;61.60;;;;;;4985835;28;20093;-80
2021/09/26 12:52:49;;;;;;;10.63;2.88;;;25.60;61.80;;;;;;4986351;28;20025;-83
2021/09/26 12:55:22;;;;;;;4.60;3.13;;;25.90;61.10;;;;;;4970007;29;20012;-80
2021/09/26 12:57:50;;;;;;;3.75;2.40;;;26.10;60.30;;;;;;4977667;28;20029;-80
2021/09/26 13:00:31;;;;;;;8.05;2.80;;;26.10;60.60;;;;;;4967814;28;20039;-82
2021/09/26 13:03:15;;;;;;;8.73;3.38;;;26.30;59.80;;;;;;4989545;28;20038;-82
2021/09/26 13:06:06;;;;;;;7.15;2.78;;;26.40;59.50;;;;;;4987035;28;20048;-82
2021/09/26 13:08:40;;;;;;;7.70;4.30;;;26.50;59.20;;;;;;4988672;28;20046;-82